sensor_id;sensor_type;location;lat;lon;timestamp;P1;durP1;ratioP1;P2;durP2;ratioP2
72813;SDS011;60945;48.516;-2.768;2022-11-15T00:00:53;8.18;;;1.42;;
72813;SDS011;60945;48.516;-2.768;2022-11-15T00:03:21;4.10;;;1.30;;
72813;SDS011;60945;48.516;-2.768;2022-11-15T00:05:48;8.43;;;1.40;;
72813;SDS011;60945;48.516;-2.768;2022-11-15T00:08:14;6.07;;;1.40;;
72813;SDS011;60945;48.516;-2.768;2022-11-15T00:10:53;5.55;;;1.48;;
72813;SDS011;60945;48.516;-2.768;2022-11-15T00:13:23;6.55;;;1.35;;
72813;SDS011;60945;48.516;-2.768;2022-11-15T00:15:48;5.05;;;1.40;;
72813;SDS011;60945;48.516;-2.768;2022-11-15T00:18:14;3.75;;;1.05;;
72813;SDS011;60945;48.516;-2.768;2022-11-15T00:20:41;5.95;;;1.40;;
72813;SDS011;60945;48.516;-2.768;2022-11-15T00:23:07;3.67;;;0.93;;
72813;SDS011;60945;48.516;-2.768;2022-11-15T00:25:33;6.88;;;1.23;;
72813;SDS011;60945;48.516;-2.768;2022-11-15T00:27:59;4.40;;;1.10;;
72813;SDS011;60945;48.516;-2.768;2022-11-15T00:30:25;6.22;;;1.38;;
72813;SDS011;60945;48.516;-2.768;2022-11-15T00:32:52;6.25;;;1.13;;
72813;SDS011;60945;48.516;-2.768;2022-11-15T00:35:18;4.03;;;1.10;;
72813;SDS011;60945;48.516;-2.768;2022-11-15T00:37:44;5.25;;;1.00;;
72813;SDS011;60945;48.516;-2.768;2022-11-15T00:40:11;5.95;;;0.88;;
72813;SDS011;60945;48.516;-2.768;2022-11-15T00:42:40;3.47;;;1.00;;
72813;SDS011;60945;48.516;-2.768;2022-11-15T00:45:06;2.65;;;1.00;;
72813;SDS011;60945;48.516;-2.768;2022-11-15T00:47:32;4.40;;;1.35;;
72813;SDS011;60945;48.516;-2.768;2022-11-15T00:49:58;4.18;;;1.23;;
72813;SDS011;60945;48.516;-2.768;2022-11-15T00:52:23;3.58;;;0.77;;
72813;SDS011;60945;48.516;-2.768;2022-11-15T00:54:49;4.82;;;0.90;;
72813;SDS011;60945;48.516;-2.768;2022-11-15T00:57:15;2.78;;;0.82;;
72813;SDS011;60945;48.516;-2.768;2022-11-15T00:59:40;5.70;;;1.10;;
72813;SDS011;60945;48.516;-2.768;2022-11-15T01:02:06;4.18;;;0.65;;
72813;SDS011;60945;48.516;-2.768;2022-11-15T01:04:31;2.05;;;0.80;;
72813;SDS011;60945;48.516;-2.768;2022-11-15T01:06:57;3.25;;;0.88;;
72813;SDS011;60945;48.516;-2.768;2022-11-15T01:09:23;2.95;;;0.88;;
72813;SDS011;60945;48.516;-2.768;2022-11-15T01:11:48;5.43;;;0.90;;
72813;SDS011;60945;48.516;-2.768;2022-11-15T01:14:14;6.43;;;1.20;;
72813;SDS011;60945;48.516;-2.768;2022-11-15T01:16:39;2.97;;;0.90;;
72813;SDS011;60945;48.516;-2.768;2022-11-15T01:19:05;6.63;;;1.08;;
72813;SDS011;60945;48.516;-2.768;2022-11-15T01:21:31;7.25;;;1.02;;
72813;SDS011;60945;48.516;-2.768;2022-11-15T01:23:56;4.43;;;0.93;;
72813;SDS011;60945;48.516;-2.768;2022-11-15T01:26:22;2.00;;;0.90;;
72813;SDS011;60945;48.516;-2.768;2022-11-15T01:28:48;3.38;;;1.83;;
72813;SDS011;60945;48.516;-2.768;2022-11-15T01:31:16;6.82;;;1.30;;
72813;SDS011;60945;48.516;-2.768;2022-11-15T01:33:43;6.85;;;1.20;;
72813;SDS011;60945;48.516;-2.768;2022-11-15T01:36:13;7.70;;;1.40;;
72813;SDS011;60945;48.516;-2.768;2022-11-15T01:38:41;4.60;;;0.93;;
72813;SDS011;60945;48.516;-2.768;2022-11-15T01:41:13;6.47;;;1.13;;
72813;SDS011;60945;48.516;-2.768;2022-11-15T01:43:40;5.75;;;1.05;;
72813;SDS011;60945;48.516;-2.768;2022-11-15T01:46:29;3.20;;;0.90;;
72813;SDS011;60945;48.516;-2.768;2022-11-15T01:49:00;6.30;;;1.10;;
72813;SDS011;60945;48.516;-2.768;2022-11-15T01:51:31;5.75;;;0.90;;
72813;SDS011;60945;48.516;-2.768;2022-11-15T01:54:00;4.40;;;0.98;;
72813;SDS011;60945;48.516;-2.768;2022-11-15T01:56:30;2.72;;;1.33;;
72813;SDS011;60945;48.516;-2.768;2022-11-15T01:58:58;3.83;;;1.00;;
72813;SDS011;60945;48.516;-2.768;2022-11-15T02:01:27;3.60;;;1.00;;
72813;SDS011;60945;48.516;-2.768;2022-11-15T02:03:56;4.65;;;1.30;;
72813;SDS011;60945;48.516;-2.768;2022-11-15T02:06:26;4.22;;;1.00;;
72813;SDS011;60945;48.516;-2.768;2022-11-15T02:08:52;2.90;;;1.10;;
72813;SDS011;60945;48.516;-2.768;2022-11-15T02:11:19;3.67;;;1.05;;
72813;SDS011;60945;48.516;-2.768;2022-11-15T02:13:44;3.58;;;1.00;;
72813;SDS011;60945;48.516;-2.768;2022-11-15T02:16:25;3.03;;;0.90;;
72813;SDS011;60945;48.516;-2.768;2022-11-15T02:22:16;2.75;;;1.00;;
72813;SDS011;60945;48.516;-2.768;2022-11-15T02:30:41;4.10;;;1.00;;
72813;SDS011;60945;48.516;-2.768;2022-11-15T02:35:57;3.05;;;1.00;;
72813;SDS011;60945;48.516;-2.768;2022-11-15T02:38:40;3.63;;;1.13;;
72813;SDS011;60945;48.516;-2.768;2022-11-15T02:41:27;2.17;;;0.85;;
72813;SDS011;60945;48.516;-2.768;2022-11-15T02:44:02;4.13;;;0.93;;
72813;SDS011;60945;48.516;-2.768;2022-11-15T02:46:57;3.05;;;0.90;;
72813;SDS011;60945;48.516;-2.768;2022-11-15T02:49:40;3.22;;;0.80;;
72813;SDS011;60945;48.516;-2.768;2022-11-15T02:52:19;3.60;;;0.70;;
72813;SDS011;60945;48.516;-2.768;2022-11-15T02:54:53;4.35;;;0.90;;
72813;SDS011;60945;48.516;-2.768;2022-11-15T02:57:23;5.72;;;0.77;;
72813;SDS011;60945;48.516;-2.768;2022-11-15T03:00:09;2.95;;;0.70;;
72813;SDS011;60945;48.516;-2.768;2022-11-15T03:16:20;0.52;;;0.47;;
72813;SDS011;60945;48.516;-2.768;2022-11-15T03:18:58;1.48;;;0.50;;
72813;SDS011;60945;48.516;-2.768;2022-11-15T03:21:29;0.85;;;0.43;;
72813;SDS011;60945;48.516;-2.768;2022-11-15T03:23:58;1.90;;;0.60;;
72813;SDS011;60945;48.516;-2.768;2022-11-15T03:26:28;2.45;;;0.60;;
72813;SDS011;60945;48.516;-2.768;2022-11-15T03:28:57;1.38;;;0.50;;
72813;SDS011;60945;48.516;-2.768;2022-11-15T03:31:29;2.00;;;0.60;;
72813;SDS011;60945;48.516;-2.768;2022-11-15T03:34:37;1.92;;;0.52;;
72813;SDS011;60945;48.516;-2.768;2022-11-15T03:37:01;0.95;;;0.40;;
72813;SDS011;60945;48.516;-2.768;2022-11-15T03:39:28;2.25;;;0.50;;
72813;SDS011;60945;48.516;-2.768;2022-11-15T03:42:18;2.17;;;0.65;;
72813;SDS011;60945;48.516;-2.768;2022-11-15T03:47:49;2.03;;;0.50;;
72813;SDS011;60945;48.516;-2.768;2022-11-15T03:50:19;1.52;;;0.60;;
72813;SDS011;60945;48.516;-2.768;2022-11-15T03:52:47;0.93;;;0.52;;
72813;SDS011;60945;48.516;-2.768;2022-11-15T03:55:18;2.30;;;0.40;;
72813;SDS011;60945;48.516;-2.768;2022-11-15T03:57:46;1.15;;;0.40;;
72813;SDS011;60945;48.516;-2.768;2022-11-15T04:00:14;2.15;;;0.47;;
72813;SDS011;60945;48.516;-2.768;2022-11-15T04:02:39;2.78;;;0.50;;
72813;SDS011;60945;48.516;-2.768;2022-11-15T04:05:05;2.05;;;0.63;;
72813;SDS011;60945;48.516;-2.768;2022-11-15T04:07:31;1.77;;;0.43;;
72813;SDS011;60945;48.516;-2.768;2022-11-15T04:09:57;0.85;;;0.30;;
72813;SDS011;60945;48.516;-2.768;2022-11-15T04:12:49;1.77;;;0.63;;
72813;SDS011;60945;48.516;-2.768;2022-11-15T04:15:16;1.15;;;0.35;;
72813;SDS011;60945;48.516;-2.768;2022-11-15T04:22:56;1.17;;;0.40;;
72813;SDS011;60945;48.516;-2.768;2022-11-15T04:25:41;2.63;;;0.85;;
72813;SDS011;60945;48.516;-2.768;2022-11-15T04:28:08;2.33;;;0.60;;
72813;SDS011;60945;48.516;-2.768;2022-11-15T04:30:33;1.02;;;0.30;;
72813;SDS011;60945;48.516;-2.768;2022-11-15T04:32:59;2.25;;;0.57;;
72813;SDS011;60945;48.516;-2.768;2022-11-15T04:35:25;1.30;;;0.40;;
72813;SDS011;60945;48.516;-2.768;2022-11-15T04:37:50;1.85;;;0.40;;
72813;SDS011;60945;48.516;-2.768;2022-11-15T04:40:16;2.75;;;0.93;;
72813;SDS011;60945;48.516;-2.768;2022-11-15T04:42:42;2.85;;;0.50;;
72813;SDS011;60945;48.516;-2.768;2022-11-15T04:45:08;0.50;;;0.40;;
72813;SDS011;60945;48.516;-2.768;2022-11-15T04:47:34;2.45;;;0.57;;
72813;SDS011;60945;48.516;-2.768;2022-11-15T04:50:00;1.42;;;0.50;;
72813;SDS011;60945;48.516;-2.768;2022-11-15T04:52:29;2.20;;;0.38;;
72813;SDS011;60945;48.516;-2.768;2022-11-15T04:54:54;1.70;;;0.52;;
72813;SDS011;60945;48.516;-2.768;2022-11-15T04:57:22;1.63;;;0.50;;
72813;SDS011;60945;48.516;-2.768;2022-11-15T04:59:48;3.20;;;0.70;;
72813;SDS011;60945;48.516;-2.768;2022-11-15T05:02:14;1.75;;;0.40;;
72813;SDS011;60945;48.516;-2.768;2022-11-15T05:04:39;1.88;;;0.50;;
72813;SDS011;60945;48.516;-2.768;2022-11-15T05:07:05;2.05;;;0.40;;
72813;SDS011;60945;48.516;-2.768;2022-11-15T05:09:31;1.20;;;0.43;;
72813;SDS011;60945;48.516;-2.768;2022-11-15T05:11:56;0.73;;;0.30;;
72813;SDS011;60945;48.516;-2.768;2022-11-15T05:14:22;1.30;;;0.40;;
72813;SDS011;60945;48.516;-2.768;2022-11-15T05:16:47;2.28;;;0.60;;
72813;SDS011;60945;48.516;-2.768;2022-11-15T05:19:13;1.23;;;0.40;;
72813;SDS011;60945;48.516;-2.768;2022-11-15T05:21:39;1.70;;;0.50;;
72813;SDS011;60945;48.516;-2.768;2022-11-15T05:24:08;1.67;;;0.40;;
72813;SDS011;60945;48.516;-2.768;2022-11-15T05:26:35;1.23;;;0.50;;
72813;SDS011;60945;48.516;-2.768;2022-11-15T05:29:00;1.00;;;0.45;;
72813;SDS011;60945;48.516;-2.768;2022-11-15T05:31:26;1.55;;;0.40;;
72813;SDS011;60945;48.516;-2.768;2022-11-15T05:33:52;1.80;;;0.50;;
72813;SDS011;60945;48.516;-2.768;2022-11-15T05:38:59;3.83;;;0.65;;
72813;SDS011;60945;48.516;-2.768;2022-11-15T05:41:33;3.33;;;0.70;;
72813;SDS011;60945;48.516;-2.768;2022-11-15T05:44:03;1.65;;;0.40;;
72813;SDS011;60945;48.516;-2.768;2022-11-15T05:46:33;0.93;;;0.40;;
72813;SDS011;60945;48.516;-2.768;2022-11-15T05:48:59;9.23;;;4.85;;
72813;SDS011;60945;48.516;-2.768;2022-11-15T05:51:25;2.47;;;0.80;;
72813;SDS011;60945;48.516;-2.768;2022-11-15T05:53:54;2.13;;;0.90;;
72813;SDS011;60945;48.516;-2.768;2022-11-15T05:56:23;1.50;;;0.40;;
72813;SDS011;60945;48.516;-2.768;2022-11-15T05:58:52;2.85;;;0.55;;
72813;SDS011;60945;48.516;-2.768;2022-11-15T06:01:19;0.82;;;0.73;;
72813;SDS011;60945;48.516;-2.768;2022-11-15T06:03:44;0.55;;;0.50;;
72813;SDS011;60945;48.516;-2.768;2022-11-15T06:06:10;1.48;;;0.50;;
72813;SDS011;60945;48.516;-2.768;2022-11-15T06:08:36;1.73;;;0.90;;
72813;SDS011;60945;48.516;-2.768;2022-11-15T06:11:05;1.25;;;0.40;;
72813;SDS011;60945;48.516;-2.768;2022-11-15T06:13:34;1.05;;;0.40;;
72813;SDS011;60945;48.516;-2.768;2022-11-15T06:16:00;1.33;;;0.50;;
72813;SDS011;60945;48.516;-2.768;2022-11-15T06:18:26;1.15;;;0.47;;
72813;SDS011;60945;48.516;-2.768;2022-11-15T06:20:52;1.90;;;0.40;;
72813;SDS011;60945;48.516;-2.768;2022-11-15T06:23:17;1.67;;;0.30;;
72813;SDS011;60945;48.516;-2.768;2022-11-15T06:25:43;1.60;;;0.40;;
72813;SDS011;60945;48.516;-2.768;2022-11-15T06:28:09;0.85;;;0.40;;
72813;SDS011;60945;48.516;-2.768;2022-11-15T06:30:34;1.08;;;0.40;;
72813;SDS011;60945;48.516;-2.768;2022-11-15T06:33:01;0.35;;;0.20;;
72813;SDS011;60945;48.516;-2.768;2022-11-15T06:35:28;1.20;;;0.40;;
72813;SDS011;60945;48.516;-2.768;2022-11-15T06:37:55;0.73;;;0.30;;
72813;SDS011;60945;48.516;-2.768;2022-11-15T06:40:21;0.93;;;0.50;;
72813;SDS011;60945;48.516;-2.768;2022-11-15T06:42:46;1.60;;;0.55;;
72813;SDS011;60945;48.516;-2.768;2022-11-15T06:45:12;0.63;;;0.32;;
72813;SDS011;60945;48.516;-2.768;2022-11-15T06:47:47;1.13;;;0.30;;
72813;SDS011;60945;48.516;-2.768;2022-11-15T06:50:13;0.85;;;0.50;;
72813;SDS011;60945;48.516;-2.768;2022-11-15T06:52:38;1.67;;;0.40;;
72813;SDS011;60945;48.516;-2.768;2022-11-15T06:55:04;1.20;;;0.20;;
72813;SDS011;60945;48.516;-2.768;2022-11-15T06:57:30;2.22;;;0.85;;
72813;SDS011;60945;48.516;-2.768;2022-11-15T06:59:57;1.45;;;0.32;;
72813;SDS011;60945;48.516;-2.768;2022-11-15T07:02:22;0.70;;;0.30;;
72813;SDS011;60945;48.516;-2.768;2022-11-15T07:04:48;0.30;;;0.30;;
72813;SDS011;60945;48.516;-2.768;2022-11-15T07:07:14;0.95;;;0.40;;
72813;SDS011;60945;48.516;-2.768;2022-11-15T07:09:39;0.95;;;0.95;;
72813;SDS011;60945;48.516;-2.768;2022-11-15T07:12:05;0.50;;;0.20;;
72813;SDS011;60945;48.516;-2.768;2022-11-15T07:14:31;1.02;;;0.40;;
72813;SDS011;60945;48.516;-2.768;2022-11-15T07:16:56;0.10;;;0.10;;
72813;SDS011;60945;48.516;-2.768;2022-11-15T07:19:22;1.05;;;0.63;;
72813;SDS011;60945;48.516;-2.768;2022-11-15T07:21:47;0.73;;;0.40;;
72813;SDS011;60945;48.516;-2.768;2022-11-15T07:24:13;1.23;;;0.35;;
72813;SDS011;60945;48.516;-2.768;2022-11-15T07:26:39;0.40;;;0.20;;
72813;SDS011;60945;48.516;-2.768;2022-11-15T07:29:04;0.90;;;0.35;;
72813;SDS011;60945;48.516;-2.768;2022-11-15T07:31:30;0.73;;;0.32;;
72813;SDS011;60945;48.516;-2.768;2022-11-15T07:33:56;0.80;;;0.32;;
72813;SDS011;60945;48.516;-2.768;2022-11-15T07:36:22;1.85;;;0.57;;
72813;SDS011;60945;48.516;-2.768;2022-11-15T07:38:47;0.93;;;0.30;;
72813;SDS011;60945;48.516;-2.768;2022-11-15T07:41:15;1.33;;;0.35;;
72813;SDS011;60945;48.516;-2.768;2022-11-15T07:43:41;0.80;;;0.40;;
72813;SDS011;60945;48.516;-2.768;2022-11-15T07:46:07;1.00;;;0.30;;
72813;SDS011;60945;48.516;-2.768;2022-11-15T07:48:37;1.10;;;0.40;;
72813;SDS011;60945;48.516;-2.768;2022-11-15T07:51:05;0.77;;;0.40;;
72813;SDS011;60945;48.516;-2.768;2022-11-15T07:53:31;4.50;;;0.50;;
72813;SDS011;60945;48.516;-2.768;2022-11-15T07:55:56;1.02;;;0.20;;
72813;SDS011;60945;48.516;-2.768;2022-11-15T07:58:22;1.58;;;0.30;;
72813;SDS011;60945;48.516;-2.768;2022-11-15T08:00:48;0.82;;;0.20;;
72813;SDS011;60945;48.516;-2.768;2022-11-15T08:03:14;1.98;;;0.70;;
72813;SDS011;60945;48.516;-2.768;2022-11-15T08:05:41;1.75;;;0.43;;
72813;SDS011;60945;48.516;-2.768;2022-11-15T08:08:08;1.38;;;0.50;;
72813;SDS011;60945;48.516;-2.768;2022-11-15T08:10:35;3.10;;;0.82;;
72813;SDS011;60945;48.516;-2.768;2022-11-15T08:13:05;1.95;;;1.00;;
72813;SDS011;60945;48.516;-2.768;2022-11-15T08:15:33;1.20;;;0.55;;
72813;SDS011;60945;48.516;-2.768;2022-11-15T08:18:00;1.48;;;0.60;;
72813;SDS011;60945;48.516;-2.768;2022-11-15T08:20:30;1.88;;;0.57;;
72813;SDS011;60945;48.516;-2.768;2022-11-15T08:22:56;1.15;;;0.55;;
72813;SDS011;60945;48.516;-2.768;2022-11-15T08:25:24;1.48;;;0.63;;
72813;SDS011;60945;48.516;-2.768;2022-11-15T08:27:53;1.75;;;0.55;;
72813;SDS011;60945;48.516;-2.768;2022-11-15T08:30:20;1.13;;;0.28;;
72813;SDS011;60945;48.516;-2.768;2022-11-15T08:32:47;0.90;;;0.50;;
72813;SDS011;60945;48.516;-2.768;2022-11-15T08:35:13;1.30;;;0.40;;
72813;SDS011;60945;48.516;-2.768;2022-11-15T08:37:39;0.80;;;0.30;;
72813;SDS011;60945;48.516;-2.768;2022-11-15T08:40:05;2.92;;;0.90;;
72813;SDS011;60945;48.516;-2.768;2022-11-15T08:42:31;1.33;;;0.50;;
72813;SDS011;60945;48.516;-2.768;2022-11-15T08:44:57;2.95;;;0.80;;
72813;SDS011;60945;48.516;-2.768;2022-11-15T08:47:25;4.57;;;1.48;;
72813;SDS011;60945;48.516;-2.768;2022-11-15T08:49:51;4.70;;;1.75;;
72813;SDS011;60945;48.516;-2.768;2022-11-15T08:52:17;2.33;;;0.85;;
72813;SDS011;60945;48.516;-2.768;2022-11-15T08:54:43;2.22;;;0.70;;
72813;SDS011;60945;48.516;-2.768;2022-11-15T08:57:08;4.55;;;1.20;;
72813;SDS011;60945;48.516;-2.768;2022-11-15T08:59:35;2.00;;;0.63;;
72813;SDS011;60945;48.516;-2.768;2022-11-15T09:02:01;2.63;;;0.68;;
72813;SDS011;60945;48.516;-2.768;2022-11-15T09:04:27;2.03;;;0.50;;
72813;SDS011;60945;48.516;-2.768;2022-11-15T09:06:53;1.20;;;0.47;;
72813;SDS011;60945;48.516;-2.768;2022-11-15T09:09:18;2.72;;;0.70;;
72813;SDS011;60945;48.516;-2.768;2022-11-15T09:11:44;3.75;;;0.65;;
72813;SDS011;60945;48.516;-2.768;2022-11-15T09:14:10;2.50;;;0.90;;
72813;SDS011;60945;48.516;-2.768;2022-11-15T09:16:37;3.13;;;0.80;;
72813;SDS011;60945;48.516;-2.768;2022-11-15T09:19:02;5.75;;;1.10;;
72813;SDS011;60945;48.516;-2.768;2022-11-15T09:21:28;1.88;;;0.60;;
72813;SDS011;60945;48.516;-2.768;2022-11-15T09:23:55;4.20;;;1.20;;
72813;SDS011;60945;48.516;-2.768;2022-11-15T09:26:21;2.03;;;0.73;;
72813;SDS011;60945;48.516;-2.768;2022-11-15T09:28:46;2.22;;;0.88;;
72813;SDS011;60945;48.516;-2.768;2022-11-15T09:31:12;5.82;;;1.10;;
72813;SDS011;60945;48.516;-2.768;2022-11-15T09:33:38;4.40;;;0.95;;
72813;SDS011;60945;48.516;-2.768;2022-11-15T09:36:04;6.35;;;1.38;;
72813;SDS011;60945;48.516;-2.768;2022-11-15T09:38:32;3.50;;;0.95;;
72813;SDS011;60945;48.516;-2.768;2022-11-15T09:41:23;2.03;;;0.80;;
72813;SDS011;60945;48.516;-2.768;2022-11-15T09:43:59;1.33;;;0.68;;
72813;SDS011;60945;48.516;-2.768;2022-11-15T09:49:31;1.87;;;0.63;;
72813;SDS011;60945;48.516;-2.768;2022-11-15T09:54:50;4.55;;;0.80;;
72813;SDS011;60945;48.516;-2.768;2022-11-15T10:00:46;4.60;;;1.42;;
72813;SDS011;60945;48.516;-2.768;2022-11-15T10:05:49;3.72;;;1.00;;
72813;SDS011;60945;48.516;-2.768;2022-11-15T10:14:42;3.15;;;1.00;;
72813;SDS011;60945;48.516;-2.768;2022-11-15T10:20:39;4.45;;;1.65;;
72813;SDS011;60945;48.516;-2.768;2022-11-15T10:24:15;2.63;;;0.70;;
72813;SDS011;60945;48.516;-2.768;2022-11-15T10:37:05;3.45;;;0.90;;
72813;SDS011;60945;48.516;-2.768;2022-11-15T10:43:35;5.00;;;0.80;;
72813;SDS011;60945;48.516;-2.768;2022-11-15T10:46:16;2.28;;;0.73;;
72813;SDS011;60945;48.516;-2.768;2022-11-15T11:04:49;5.20;;;1.00;;
72813;SDS011;60945;48.516;-2.768;2022-11-15T11:21:18;5.22;;;1.10;;
72813;SDS011;60945;48.516;-2.768;2022-11-15T11:34:41;4.82;;;1.25;;
72813;SDS011;60945;48.516;-2.768;2022-11-15T11:37:32;5.50;;;1.40;;
72813;SDS011;60945;48.516;-2.768;2022-11-15T11:40:13;7.03;;;1.45;;
72813;SDS011;60945;48.516;-2.768;2022-11-15T11:43:39;5.28;;;1.15;;
72813;SDS011;60945;48.516;-2.768;2022-11-15T11:49:08;4.45;;;1.35;;
72813;SDS011;60945;48.516;-2.768;2022-11-15T11:51:45;3.72;;;0.98;;
72813;SDS011;60945;48.516;-2.768;2022-11-15T12:00:28;7.00;;;1.10;;
72813;SDS011;60945;48.516;-2.768;2022-11-15T12:11:20;5.00;;;1.10;;
72813;SDS011;60945;48.516;-2.768;2022-11-15T12:13:49;3.72;;;0.70;;
72813;SDS011;60945;48.516;-2.768;2022-11-15T12:16:29;3.17;;;0.88;;
72813;SDS011;60945;48.516;-2.768;2022-11-15T12:19:00;3.88;;;0.90;;
72813;SDS011;60945;48.516;-2.768;2022-11-15T12:24:24;4.97;;;0.80;;
72813;SDS011;60945;48.516;-2.768;2022-11-15T12:26:57;4.03;;;0.98;;
72813;SDS011;60945;48.516;-2.768;2022-11-15T12:32:04;3.47;;;0.90;;
72813;SDS011;60945;48.516;-2.768;2022-11-15T12:34:41;2.88;;;0.60;;
72813;SDS011;60945;48.516;-2.768;2022-11-15T12:45:39;1.13;;;0.40;;
72813;SDS011;60945;48.516;-2.768;2022-11-15T12:58:54;5.25;;;0.80;;
72813;SDS011;60945;48.516;-2.768;2022-11-15T13:38:43;1.55;;;0.43;;
72813;SDS011;60945;48.516;-2.768;2022-11-15T13:55:03;3.95;;;1.00;;
72813;SDS011;60945;48.516;-2.768;2022-11-15T14:01:25;1.52;;;0.75;;
72813;SDS011;60945;48.516;-2.768;2022-11-15T14:21:21;2.88;;;0.90;;
72813;SDS011;60945;48.516;-2.768;2022-11-15T14:23:47;4.13;;;1.20;;
72813;SDS011;60945;48.516;-2.768;2022-11-15T14:26:31;5.63;;;1.40;;
72813;SDS011;60945;48.516;-2.768;2022-11-15T14:29:28;4.40;;;1.20;;
72813;SDS011;60945;48.516;-2.768;2022-11-15T14:34:23;3.63;;;1.40;;
72813;SDS011;60945;48.516;-2.768;2022-11-15T14:36:48;3.55;;;1.35;;
72813;SDS011;60945;48.516;-2.768;2022-11-15T14:39:14;3.67;;;1.00;;
72813;SDS011;60945;48.516;-2.768;2022-11-15T14:41:40;4.25;;;1.10;;
72813;SDS011;60945;48.516;-2.768;2022-11-15T14:44:06;5.22;;;1.60;;
72813;SDS011;60945;48.516;-2.768;2022-11-15T14:46:35;4.70;;;1.20;;
72813;SDS011;60945;48.516;-2.768;2022-11-15T14:49:01;3.03;;;1.08;;
72813;SDS011;60945;48.516;-2.768;2022-11-15T14:51:26;5.85;;;1.30;;
72813;SDS011;60945;48.516;-2.768;2022-11-15T14:53:52;6.55;;;1.60;;
72813;SDS011;60945;48.516;-2.768;2022-11-15T14:56:19;6.60;;;1.50;;
72813;SDS011;60945;48.516;-2.768;2022-11-15T14:58:44;6.22;;;1.40;;
72813;SDS011;60945;48.516;-2.768;2022-11-15T15:04:05;5.78;;;1.10;;
72813;SDS011;60945;48.516;-2.768;2022-11-15T15:06:31;3.95;;;1.10;;
72813;SDS011;60945;48.516;-2.768;2022-11-15T15:08:56;4.82;;;1.40;;
72813;SDS011;60945;48.516;-2.768;2022-11-15T15:11:23;4.55;;;1.23;;
72813;SDS011;60945;48.516;-2.768;2022-11-15T15:13:51;7.95;;;1.90;;
72813;SDS011;60945;48.516;-2.768;2022-11-15T15:16:18;5.70;;;1.20;;
72813;SDS011;60945;48.516;-2.768;2022-11-15T15:18:43;6.70;;;1.15;;
72813;SDS011;60945;48.516;-2.768;2022-11-15T15:21:16;5.35;;;1.25;;
72813;SDS011;60945;48.516;-2.768;2022-11-15T15:23:49;6.45;;;1.70;;
72813;SDS011;60945;48.516;-2.768;2022-11-15T15:26:15;4.05;;;1.73;;
72813;SDS011;60945;48.516;-2.768;2022-11-15T15:28:40;5.07;;;2.13;;
72813;SDS011;60945;48.516;-2.768;2022-11-15T15:31:07;5.20;;;1.65;;
72813;SDS011;60945;48.516;-2.768;2022-11-15T15:33:36;4.38;;;1.20;;
72813;SDS011;60945;48.516;-2.768;2022-11-15T15:36:02;5.15;;;1.92;;
72813;SDS011;60945;48.516;-2.768;2022-11-15T15:38:28;7.30;;;1.50;;
72813;SDS011;60945;48.516;-2.768;2022-11-15T15:40:54;4.90;;;1.05;;
72813;SDS011;60945;48.516;-2.768;2022-11-15T15:43:23;4.47;;;1.33;;
72813;SDS011;60945;48.516;-2.768;2022-11-15T15:45:49;8.73;;;1.80;;
72813;SDS011;60945;48.516;-2.768;2022-11-15T15:48:15;2.88;;;1.23;;
72813;SDS011;60945;48.516;-2.768;2022-11-15T15:50:43;6.00;;;1.20;;
72813;SDS011;60945;48.516;-2.768;2022-11-15T15:53:10;5.15;;;1.20;;
72813;SDS011;60945;48.516;-2.768;2022-11-15T15:55:36;6.22;;;1.42;;
72813;SDS011;60945;48.516;-2.768;2022-11-15T15:58:03;4.10;;;1.42;;
72813;SDS011;60945;48.516;-2.768;2022-11-15T16:00:30;5.97;;;1.00;;
72813;SDS011;60945;48.516;-2.768;2022-11-15T16:02:58;5.72;;;1.25;;
72813;SDS011;60945;48.516;-2.768;2022-11-15T16:05:24;4.28;;;1.40;;
72813;SDS011;60945;48.516;-2.768;2022-11-15T16:07:49;6.20;;;1.55;;
72813;SDS011;60945;48.516;-2.768;2022-11-15T16:10:23;6.43;;;1.50;;
72813;SDS011;60945;48.516;-2.768;2022-11-15T16:12:53;8.63;;;1.45;;
72813;SDS011;60945;48.516;-2.768;2022-11-15T16:15:20;5.43;;;1.40;;
72813;SDS011;60945;48.516;-2.768;2022-11-15T16:17:49;6.60;;;1.60;;
72813;SDS011;60945;48.516;-2.768;2022-11-15T16:20:36;6.78;;;1.42;;
72813;SDS011;60945;48.516;-2.768;2022-11-15T16:23:14;5.75;;;1.17;;
72813;SDS011;60945;48.516;-2.768;2022-11-15T16:25:42;5.90;;;1.40;;
72813;SDS011;60945;48.516;-2.768;2022-11-15T16:28:21;6.45;;;1.70;;
72813;SDS011;60945;48.516;-2.768;2022-11-15T16:30:49;8.05;;;1.30;;
72813;SDS011;60945;48.516;-2.768;2022-11-15T16:33:25;6.90;;;1.63;;
72813;SDS011;60945;48.516;-2.768;2022-11-15T16:35:52;5.82;;;1.40;;
72813;SDS011;60945;48.516;-2.768;2022-11-15T16:38:22;6.63;;;1.50;;
72813;SDS011;60945;48.516;-2.768;2022-11-15T16:40:48;6.72;;;1.20;;
72813;SDS011;60945;48.516;-2.768;2022-11-15T16:43:14;6.53;;;1.10;;
72813;SDS011;60945;48.516;-2.768;2022-11-15T16:45:40;6.47;;;1.20;;
72813;SDS011;60945;48.516;-2.768;2022-11-15T16:48:06;3.50;;;0.90;;
72813;SDS011;60945;48.516;-2.768;2022-11-15T16:50:35;5.50;;;1.30;;
72813;SDS011;60945;48.516;-2.768;2022-11-15T16:53:03;4.93;;;1.17;;
72813;SDS011;60945;48.516;-2.768;2022-11-15T16:55:29;5.10;;;1.05;;
72813;SDS011;60945;48.516;-2.768;2022-11-15T16:57:55;4.88;;;1.35;;
72813;SDS011;60945;48.516;-2.768;2022-11-15T17:00:25;4.85;;;1.10;;
72813;SDS011;60945;48.516;-2.768;2022-11-15T17:02:51;4.38;;;1.40;;
72813;SDS011;60945;48.516;-2.768;2022-11-15T17:05:18;6.38;;;1.30;;
72813;SDS011;60945;48.516;-2.768;2022-11-15T17:07:49;6.50;;;1.52;;
72813;SDS011;60945;48.516;-2.768;2022-11-15T17:12:49;5.28;;;1.52;;
72813;SDS011;60945;48.516;-2.768;2022-11-15T17:15:17;7.95;;;1.83;;
72813;SDS011;60945;48.516;-2.768;2022-11-15T17:17:44;6.75;;;1.90;;
72813;SDS011;60945;48.516;-2.768;2022-11-15T17:20:17;7.60;;;2.27;;
72813;SDS011;60945;48.516;-2.768;2022-11-15T17:22:47;4.88;;;2.20;;
72813;SDS011;60945;48.516;-2.768;2022-11-15T17:25:15;7.78;;;2.35;;
72813;SDS011;60945;48.516;-2.768;2022-11-15T17:27:43;8.20;;;1.65;;
72813;SDS011;60945;48.516;-2.768;2022-11-15T17:30:09;5.75;;;1.83;;
72813;SDS011;60945;48.516;-2.768;2022-11-15T17:32:37;8.32;;;2.38;;
72813;SDS011;60945;48.516;-2.768;2022-11-15T17:35:03;8.07;;;2.55;;
72813;SDS011;60945;48.516;-2.768;2022-11-15T17:37:31;9.88;;;3.03;;
72813;SDS011;60945;48.516;-2.768;2022-11-15T17:39:57;13.05;;;2.90;;
72813;SDS011;60945;48.516;-2.768;2022-11-15T17:42:25;7.05;;;2.85;;
72813;SDS011;60945;48.516;-2.768;2022-11-15T17:44:51;9.70;;;2.92;;
72813;SDS011;60945;48.516;-2.768;2022-11-15T17:47:17;10.27;;;3.42;;
72813;SDS011;60945;48.516;-2.768;2022-11-15T17:49:43;10.05;;;2.50;;
72813;SDS011;60945;48.516;-2.768;2022-11-15T17:52:08;7.63;;;2.53;;
72813;SDS011;60945;48.516;-2.768;2022-11-15T17:54:34;8.70;;;2.30;;
72813;SDS011;60945;48.516;-2.768;2022-11-15T17:57:00;7.55;;;2.05;;
72813;SDS011;60945;48.516;-2.768;2022-11-15T17:59:25;6.65;;;2.38;;
72813;SDS011;60945;48.516;-2.768;2022-11-15T18:01:51;6.55;;;2.15;;
72813;SDS011;60945;48.516;-2.768;2022-11-15T18:04:18;7.97;;;2.25;;
72813;SDS011;60945;48.516;-2.768;2022-11-15T18:06:44;9.25;;;2.30;;
72813;SDS011;60945;48.516;-2.768;2022-11-15T18:09:12;7.50;;;2.03;;
72813;SDS011;60945;48.516;-2.768;2022-11-15T18:11:41;8.02;;;2.78;;
72813;SDS011;60945;48.516;-2.768;2022-11-15T18:14:12;8.95;;;2.30;;
72813;SDS011;60945;48.516;-2.768;2022-11-15T18:16:41;7.20;;;2.90;;
72813;SDS011;60945;48.516;-2.768;2022-11-15T18:19:06;9.20;;;2.97;;
72813;SDS011;60945;48.516;-2.768;2022-11-15T18:21:39;13.80;;;2.83;;
72813;SDS011;60945;48.516;-2.768;2022-11-15T18:24:30;6.93;;;2.20;;
72813;SDS011;60945;48.516;-2.768;2022-11-15T18:26:58;8.63;;;2.40;;
72813;SDS011;60945;48.516;-2.768;2022-11-15T18:29:26;10.23;;;2.60;;
72813;SDS011;60945;48.516;-2.768;2022-11-15T18:31:51;9.40;;;3.25;;
72813;SDS011;60945;48.516;-2.768;2022-11-15T18:34:21;6.80;;;3.28;;
72813;SDS011;60945;48.516;-2.768;2022-11-15T18:36:56;9.48;;;3.53;;
72813;SDS011;60945;48.516;-2.768;2022-11-15T18:39:23;10.95;;;2.92;;